createdAt,value
2022-11-30T00:00:50.773Z,26.60
2022-11-30T00:03:18.476Z,26.67
2022-11-30T00:05:46.025Z,24.17
2022-11-30T00:08:13.376Z,21.83
2022-11-30T00:10:41.239Z,26.30
2022-11-30T00:13:09.377Z,24.00
2022-11-30T00:15:39.922Z,23.05
2022-11-30T00:18:08.833Z,27.05
2022-11-30T00:20:36.065Z,24.45
2022-11-30T00:23:03.398Z,24.38
2022-11-30T00:25:30.755Z,25.83
2022-11-30T00:28:01.052Z,24.58
2022-11-30T00:30:28.451Z,24.58
2022-11-30T00:32:59.110Z,23.55
2022-11-30T00:35:26.628Z,23.50
2022-11-30T00:37:53.931Z,22.55
2022-11-30T00:40:21.342Z,23.42
2022-11-30T00:42:48.555Z,22.63
2022-11-30T00:45:15.786Z,23.33
2022-11-30T00:47:42.994Z,23.58
2022-11-30T00:50:10.597Z,23.40
2022-11-30T00:52:37.895Z,22.15
2022-11-30T00:55:05.572Z,22.73
2022-11-30T00:57:32.921Z,22.55
2022-11-30T01:00:00.316Z,20.65
2022-11-30T01:02:27.780Z,22.67
2022-11-30T01:04:55.115Z,23.67
2022-11-30T01:07:22.404Z,26.13
2022-11-30T01:09:49.936Z,25.98
2022-11-30T01:12:17.186Z,26.15
2022-11-30T01:14:44.906Z,26.42
2022-11-30T01:17:12.639Z,22.40
2022-11-30T01:19:40.080Z,23.77
2022-11-30T01:22:07.381Z,22.30
2022-11-30T01:24:35.040Z,22.35
2022-11-30T01:27:02.278Z,20.95
2022-11-30T01:29:30.801Z,21.90
2022-11-30T01:31:58.334Z,19.98
2022-11-30T01:34:31.355Z,21.13
2022-11-30T01:36:58.677Z,21.02
2022-11-30T01:39:26.067Z,16.63
2022-11-30T01:41:57.287Z,16.45
2022-11-30T01:44:26.608Z,14.98
2022-11-30T01:47:01.961Z,14.60
2022-11-30T01:49:30.704Z,15.48
2022-11-30T01:52:00.073Z,15.27
2022-11-30T01:54:29.190Z,17.58
2022-11-30T01:56:58.552Z,15.27
2022-11-30T01:59:26.862Z,14.40
2022-11-30T02:01:54.840Z,17.45
2022-11-30T02:04:22.278Z,14.48
2022-11-30T02:06:50.138Z,19.15
2022-11-30T02:09:18.905Z,16.40
2022-11-30T02:11:46.534Z,17.20
2022-11-30T02:14:32.452Z,17.00
2022-11-30T02:17:02.739Z,16.10
2022-11-30T02:19:30.098Z,15.80
2022-11-30T02:22:16.430Z,15.90
2022-11-30T02:25:02.329Z,17.55
2022-11-30T02:27:52.770Z,20.58
2022-11-30T02:30:21.737Z,17.42
2022-11-30T02:32:58.596Z,17.08
2022-11-30T02:35:28.630Z,16.58
2022-11-30T02:37:57.445Z,16.65
2022-11-30T02:40:24.763Z,18.92
2022-11-30T02:42:53.364Z,16.98
2022-11-30T02:45:33.030Z,16.98
2022-11-30T02:48:04.360Z,17.50
2022-11-30T02:50:37.052Z,16.45
2022-11-30T02:53:15.705Z,17.83
2022-11-30T02:55:45.643Z,18.05
2022-11-30T02:58:13.946Z,15.80
2022-11-30T03:00:41.181Z,15.90
2022-11-30T03:03:08.663Z,18.58
2022-11-30T03:05:36.010Z,17.27
2022-11-30T03:08:03.364Z,15.95
2022-11-30T03:10:30.708Z,17.92
2022-11-30T03:12:58.880Z,18.63
2022-11-30T03:15:26.319Z,14.70
2022-11-30T03:17:53.794Z,15.55
2022-11-30T03:20:21.183Z,16.02
2022-11-30T03:22:48.576Z,16.88
2022-11-30T03:25:15.888Z,16.88
2022-11-30T03:27:43.314Z,14.68
2022-11-30T03:30:10.936Z,16.23
2022-11-30T03:32:38.292Z,14.88
2022-11-30T03:35:05.814Z,15.88
2022-11-30T03:37:33.157Z,14.50
2022-11-30T03:40:00.482Z,13.98
2022-11-30T03:42:27.745Z,15.73
2022-11-30T03:44:54.960Z,16.48
2022-11-30T03:47:22.611Z,16.77
2022-11-30T03:49:49.908Z,16.63
2022-11-30T03:52:17.401Z,15.27
2022-11-30T03:54:45.098Z,16.65
2022-11-30T03:57:12.923Z,14.95
2022-11-30T03:59:40.213Z,14.57
2022-11-30T04:02:07.732Z,17.40
2022-11-30T04:04:35.108Z,16.58
2022-11-30T04:07:02.458Z,14.38
2022-11-30T04:09:29.867Z,14.43
2022-11-30T04:11:57.337Z,16.20
2022-11-30T04:14:24.574Z,15.38
2022-11-30T04:16:51.982Z,17.75
2022-11-30T04:19:21.026Z,15.82
2022-11-30T04:21:48.352Z,14.52
2022-11-30T04:24:15.761Z,15.95
2022-11-30T04:26:43.167Z,16.65
2022-11-30T04:29:11.190Z,14.77
2022-11-30T04:31:38.636Z,15.95
2022-11-30T04:34:06.052Z,15.10
2022-11-30T04:36:33.328Z,16.48
2022-11-30T04:39:00.867Z,19.83
2022-11-30T04:41:28.359Z,16.98
2022-11-30T04:43:55.593Z,17.98
2022-11-30T04:46:23.108Z,17.67
2022-11-30T04:48:50.551Z,18.77
2022-11-30T04:51:17.897Z,18.05
2022-11-30T04:53:45.220Z,18.70
2022-11-30T04:56:12.714Z,17.08
2022-11-30T04:58:40.145Z,16.88
2022-11-30T05:01:07.996Z,19.15
2022-11-30T05:03:35.392Z,17.17
2022-11-30T05:06:03.014Z,17.17
2022-11-30T05:08:30.575Z,19.30
2022-11-30T05:10:57.933Z,16.02
2022-11-30T05:13:25.831Z,16.65
2022-11-30T05:15:56.482Z,17.70
2022-11-30T05:18:24.026Z,16.20
2022-11-30T05:20:51.994Z,16.70
2022-11-30T05:23:20.384Z,17.52
2022-11-30T05:25:47.770Z,16.38
2022-11-30T05:28:15.180Z,16.60
2022-11-30T05:30:42.875Z,17.52
2022-11-30T05:33:10.317Z,16.60
2022-11-30T05:35:38.855Z,13.65
2022-11-30T05:38:06.973Z,13.07
2022-11-30T05:40:34.354Z,13.10
2022-11-30T05:43:02.204Z,13.75
2022-11-30T05:45:29.730Z,15.10
2022-11-30T05:47:57.266Z,13.25
2022-11-30T05:50:24.570Z,14.27
2022-11-30T05:52:56.170Z,13.52
2022-11-30T05:55:24.094Z,12.95
2022-11-30T05:57:51.487Z,15.73
2022-11-30T06:00:19.126Z,15.13
2022-11-30T06:02:47.849Z,12.80
2022-11-30T06:05:15.305Z,16.67
2022-11-30T06:07:42.550Z,17.13
2022-11-30T06:10:10.144Z,15.43
2022-11-30T06:12:37.454Z,16.30
2022-11-30T06:15:05.046Z,14.43
2022-11-30T06:17:32.384Z,14.85
2022-11-30T06:19:59.729Z,13.98
2022-11-30T06:22:29.482Z,17.48
2022-11-30T06:24:56.864Z,15.80
2022-11-30T06:27:24.089Z,17.23
2022-11-30T06:29:51.538Z,16.65
2022-11-30T06:32:18.822Z,13.68
2022-11-30T06:34:46.427Z,16.17
2022-11-30T06:37:14.049Z,17.48
2022-11-30T06:40:05.278Z,14.07
2022-11-30T06:42:32.574Z,13.65
2022-11-30T06:44:59.973Z,13.07
2022-11-30T06:47:28.033Z,13.80
2022-11-30T06:49:55.655Z,12.90
2022-11-30T06:52:23.058Z,15.27
2022-11-30T06:54:50.689Z,14.32
2022-11-30T06:57:18.062Z,14.90
2022-11-30T06:59:46.654Z,14.77
2022-11-30T07:02:18.347Z,14.48
2022-11-30T07:04:46.459Z,14.73
2022-11-30T07:07:14.338Z,12.07
2022-11-30T07:09:41.758Z,12.82
2022-11-30T07:12:09.477Z,16.25
2022-11-30T07:14:36.747Z,14.93
2022-11-30T07:17:04.808Z,17.40
2022-11-30T07:19:34.510Z,14.82
2022-11-30T07:22:02.196Z,14.23
2022-11-30T07:24:48.745Z,14.48
2022-11-30T07:27:16.448Z,12.93
2022-11-30T07:29:43.706Z,14.90
2022-11-30T07:32:11.353Z,14.02
2022-11-30T07:34:38.719Z,17.45
2022-11-30T07:37:06.091Z,14.63
2022-11-30T07:39:33.323Z,13.23
2022-11-30T07:42:01.948Z,15.38
2022-11-30T07:44:29.193Z,16.45
2022-11-30T07:46:56.580Z,14.85
2022-11-30T07:49:23.868Z,14.77
2022-11-30T07:51:51.253Z,16.75
2022-11-30T07:54:18.646Z,14.73
2022-11-30T07:56:45.996Z,15.93
2022-11-30T07:59:13.961Z,15.00
2022-11-30T08:01:41.535Z,17.30
2022-11-30T08:04:09.162Z,16.60
2022-11-30T08:06:37.076Z,17.15
2022-11-30T08:09:05.967Z,17.23
2022-11-30T08:11:35.115Z,16.35
2022-11-30T08:14:08.470Z,15.75
2022-11-30T08:16:40.306Z,16.23
2022-11-30T08:19:08.109Z,19.10
2022-11-30T08:21:47.121Z,17.38
2022-11-30T08:24:20.334Z,19.00
2022-11-30T08:27:21.007Z,18.60
2022-11-30T08:35:45.648Z,19.45
2022-11-30T08:38:13.344Z,25.50
2022-11-30T08:40:43.348Z,21.35
2022-11-30T08:43:21.118Z,22.65
2022-11-30T08:46:00.448Z,22.45
2022-11-30T08:48:29.058Z,26.33
2022-11-30T08:51:00.680Z,24.67
2022-11-30T08:53:28.089Z,25.60
2022-11-30T08:55:56.188Z,24.30
2022-11-30T08:58:23.736Z,22.17
2022-11-30T09:00:54.287Z,20.95
2022-11-30T09:03:21.780Z,23.35
2022-11-30T09:05:49.203Z,23.77
2022-11-30T09:08:16.662Z,21.52
2022-11-30T09:10:44.160Z,21.75
2022-11-30T09:13:16.599Z,20.70
2022-11-30T09:16:10.182Z,20.15
2022-11-30T09:18:44.482Z,20.75
2022-11-30T09:21:13.314Z,20.95
2022-11-30T09:23:43.257Z,21.10
2022-11-30T09:26:12.243Z,21.83
2022-11-30T09:28:40.123Z,23.10
2022-11-30T09:31:09.063Z,26.08
2022-11-30T09:33:45.183Z,22.05
2022-11-30T09:36:18.410Z,21.85
2022-11-30T09:39:11.168Z,24.55
2022-11-30T09:42:06.712Z,27.80
2022-11-30T09:47:53.969Z,26.98
2022-11-30T09:50:22.770Z,25.02
2022-11-30T09:52:57.007Z,24.33
2022-11-30T09:55:29.543Z,23.35
2022-11-30T09:58:14.723Z,24.75
2022-11-30T10:03:22.007Z,22.65
2022-11-30T10:05:53.077Z,26.25
2022-11-30T10:11:29.385Z,23.42
2022-11-30T10:14:10.600Z,24.45
2022-11-30T10:16:43.346Z,25.65
2022-11-30T10:19:13.844Z,26.48
2022-11-30T10:21:47.510Z,29.65
2022-11-30T10:24:22.587Z,29.58
2022-11-30T10:27:12.114Z,27.70
2022-11-30T10:29:41.425Z,25.88
2022-11-30T10:32:30.114Z,26.20
2022-11-30T10:35:10.484Z,34.03
2022-11-30T10:37:45.685Z,32.75
2022-11-30T10:40:26.973Z,30.10
2022-11-30T10:42:59.002Z,31.90
2022-11-30T10:45:29.154Z,30.88
2022-11-30T10:48:13.628Z,26.42
2022-11-30T10:53:12.811Z,28.25
2022-11-30T10:55:58.775Z,29.10
2022-11-30T10:58:29.020Z,25.80
2022-11-30T11:01:02.986Z,30.13
2022-11-30T11:03:30.756Z,26.88
2022-11-30T11:06:08.902Z,28.58
2022-11-30T11:08:36.403Z,27.05
2022-11-30T11:11:03.829Z,30.77
2022-11-30T11:13:39.016Z,28.85
2022-11-30T11:16:07.644Z,31.77
2022-11-30T11:18:35.921Z,32.95
2022-11-30T11:21:06.736Z,31.23
2022-11-30T11:23:36.183Z,31.90
2022-11-30T11:26:03.604Z,32.80
2022-11-30T11:28:31.218Z,42.33
2022-11-30T11:30:59.993Z,31.40
2022-11-30T11:33:28.513Z,28.08
2022-11-30T11:36:08.194Z,32.10
2022-11-30T11:38:42.742Z,28.98
2022-11-30T11:41:20.893Z,30.77
2022-11-30T11:43:59.768Z,28.15
2022-11-30T11:46:27.394Z,30.25
2022-11-30T11:49:00.719Z,30.85
2022-11-30T11:51:40.236Z,29.70
2022-11-30T11:54:23.506Z,26.70
2022-11-30T11:56:51.123Z,26.58
2022-11-30T11:59:23.433Z,25.88
2022-11-30T12:02:02.871Z,24.98
2022-11-30T12:04:46.837Z,25.65
2022-11-30T12:07:40.343Z,24.67
2022-11-30T12:10:51.205Z,24.95
2022-11-30T12:16:01.512Z,27.83
2022-11-30T12:18:31.707Z,24.65
2022-11-30T12:21:01.190Z,25.40
2022-11-30T12:23:29.839Z,27.48
2022-11-30T12:26:08.650Z,24.30
2022-11-30T12:28:38.984Z,28.45
2022-11-30T12:31:11.729Z,31.50
2022-11-30T12:34:01.979Z,26.55
2022-11-30T12:36:48.174Z,29.15
2022-11-30T12:39:21.347Z,27.10
2022-11-30T12:41:51.721Z,24.95
2022-11-30T12:44:28.915Z,27.25
2022-11-30T12:47:09.308Z,27.45
2022-11-30T12:49:39.706Z,32.85
2022-11-30T12:52:24.251Z,28.45
2022-11-30T12:55:04.636Z,25.73
2022-11-30T12:57:32.026Z,29.45
2022-11-30T13:00:14.547Z,29.23
2022-11-30T13:02:42.134Z,27.88
2022-11-30T13:05:16.247Z,30.05
2022-11-30T13:07:45.954Z,30.98
2022-11-30T13:10:13.340Z,27.30
2022-11-30T13:12:43.548Z,27.70
2022-11-30T13:15:19.286Z,25.02
2022-11-30T13:17:47.358Z,28.55
2022-11-30T13:20:23.075Z,30.77
2022-11-30T13:23:08.954Z,32.90
2022-11-30T13:26:07.459Z,30.25
2022-11-30T13:28:41.832Z,28.77
2022-11-30T13:31:15.424Z,29.90
2022-11-30T13:33:48.319Z,27.65
2022-11-30T13:36:21.608Z,31.02
2022-11-30T13:39:09.687Z,30.45
2022-11-30T13:41:38.360Z,31.83
2022-11-30T13:44:06.342Z,28.65
2022-11-30T13:46:33.813Z,33.95
2022-11-30T13:49:11.279Z,29.58
2022-11-30T13:51:40.774Z,37.88
2022-11-30T13:54:31.273Z,31.98
2022-11-30T13:56:58.731Z,29.77
2022-11-30T13:59:28.905Z,27.20
2022-11-30T14:02:15.040Z,29.33
2022-11-30T14:04:46.192Z,28.40
2022-11-30T14:07:32.976Z,27.55
2022-11-30T14:10:00.677Z,31.23
2022-11-30T14:12:37.911Z,31.10
2022-11-30T14:15:25.573Z,30.35
2022-11-30T14:17:55.893Z,28.88
2022-11-30T14:20:25.275Z,36.38
2022-11-30T14:22:52.883Z,32.55
2022-11-30T14:25:21.578Z,30.95
2022-11-30T14:27:51.429Z,31.58
2022-11-30T14:30:23.734Z,29.92
2022-11-30T14:32:57.915Z,36.17
2022-11-30T14:35:25.560Z,33.13
2022-11-30T14:37:57.720Z,28.98
2022-11-30T14:40:27.467Z,30.80
2022-11-30T14:43:29.896Z,31.98
2022-11-30T14:46:04.397Z,35.53
2022-11-30T14:48:33.747Z,32.70
2022-11-30T14:51:03.705Z,33.10
2022-11-30T14:53:34.056Z,32.58
2022-11-30T14:56:23.260Z,37.45
2022-11-30T14:59:07.812Z,45.35
2022-11-30T15:01:35.321Z,39.25
2022-11-30T15:04:10.750Z,35.53
2022-11-30T15:06:39.435Z,31.58
2022-11-30T15:09:13.787Z,31.45
2022-11-30T15:11:42.601Z,33.05
2022-11-30T15:14:11.427Z,31.83
2022-11-30T15:16:38.911Z,40.78
2022-11-30T15:19:19.329Z,33.08
2022-11-30T15:21:47.663Z,30.45
2022-11-30T15:24:15.071Z,29.70
2022-11-30T15:27:10.997Z,34.60
2022-11-30T15:29:40.339Z,33.83
2022-11-30T15:32:09.249Z,28.15
2022-11-30T15:34:52.232Z,31.23
2022-11-30T15:37:28.240Z,30.50
2022-11-30T15:39:56.625Z,35.72
2022-11-30T15:42:41.139Z,31.60
2022-11-30T15:45:15.902Z,37.13
2022-11-30T15:47:43.372Z,31.35
2022-11-30T15:50:20.456Z,29.88
2022-11-30T15:52:49.074Z,31.25
2022-11-30T15:55:35.113Z,32.10
2022-11-30T15:58:03.398Z,35.78
2022-11-30T16:00:30.840Z,34.25
2022-11-30T16:03:11.116Z,34.72
2022-11-30T16:05:39.492Z,32.72
2022-11-30T16:08:14.992Z,32.95
2022-11-30T16:10:43.769Z,35.20
2022-11-30T16:13:15.521Z,31.35
2022-11-30T16:15:46.818Z,29.63
2022-11-30T16:18:17.614Z,37.78
2022-11-30T16:20:45.977Z,35.78
2022-11-30T16:23:15.252Z,35.35
2022-11-30T16:25:43.228Z,38.83
2022-11-30T16:28:14.611Z,39.92
2022-11-30T16:30:42.406Z,53.20
2022-11-30T16:33:20.421Z,40.72
2022-11-30T16:35:50.679Z,39.55
2022-11-30T16:38:18.677Z,40.97
2022-11-30T16:40:46.463Z,40.25
2022-11-30T16:43:13.970Z,41.03
2022-11-30T16:45:41.767Z,37.33
2022-11-30T16:48:11.910Z,42.72
2022-11-30T16:50:39.296Z,38.95
2022-11-30T16:53:06.774Z,39.35
2022-11-30T16:55:39.465Z,41.00
2022-11-30T16:58:07.033Z,42.80
2022-11-30T17:00:34.749Z,38.60
2022-11-30T17:03:20.453Z,42.83
2022-11-30T17:05:48.143Z,38.70
2022-11-30T17:08:15.459Z,41.33
2022-11-30T17:10:43.099Z,40.53
2022-11-30T17:13:13.507Z,38.20
2022-11-30T17:15:40.994Z,37.40
2022-11-30T17:18:08.507Z,38.90
2022-11-30T17:20:36.529Z,36.53
2022-11-30T17:23:04.562Z,41.17
2022-11-30T17:25:32.094Z,39.05
2022-11-30T17:28:00.187Z,35.58
2022-11-30T17:30:28.095Z,33.55
2022-11-30T17:32:55.583Z,39.13
2022-11-30T17:35:22.929Z,34.72
2022-11-30T17:37:50.465Z,37.60
2022-11-30T17:40:17.994Z,38.70
2022-11-30T17:42:45.282Z,34.92
2022-11-30T17:45:13.066Z,35.10
2022-11-30T17:47:40.499Z,37.55
2022-11-30T17:50:08.709Z,38.63
2022-11-30T17:52:35.961Z,36.70
2022-11-30T17:55:03.526Z,35.28
2022-11-30T17:57:30.807Z,39.13
2022-11-30T17:59:58.158Z,41.67
2022-11-30T18:02:25.746Z,35.90
2022-11-30T18:04:54.555Z,33.40
2022-11-30T18:07:22.312Z,40.25
2022-11-30T18:09:50.024Z,37.53
2022-11-30T18:12:17.247Z,41.85
2022-11-30T18:14:44.568Z,34.03
2022-11-30T18:17:11.987Z,37.88
2022-11-30T18:19:39.441Z,36.60
2022-11-30T18:22:06.766Z,33.95
2022-11-30T18:24:34.249Z,35.17
2022-11-30T18:27:01.556Z,31.77
2022-11-30T18:29:28.979Z,30.85
2022-11-30T18:31:56.381Z,35.72
2022-11-30T18:34:23.923Z,32.75
2022-11-30T18:36:51.241Z,35.22
2022-11-30T18:39:19.024Z,36.63
2022-11-30T18:41:46.327Z,33.10
2022-11-30T18:44:13.639Z,32.63
2022-11-30T18:46:41.250Z,30.63
2022-11-30T18:49:08.717Z,41.15
2022-11-30T18:51:36.073Z,36.15
2022-11-30T18:54:04.799Z,34.53
2022-11-30T18:56:33.391Z,37.15
2022-11-30T18:59:02.273Z,40.97
2022-11-30T19:01:29.889Z,40.78
2022-11-30T19:03:58.606Z,38.13
2022-11-30T19:06:28.293Z,41.63
2022-11-30T19:08:55.954Z,37.72
2022-11-30T19:11:23.272Z,40.22
2022-11-30T19:13:54.575Z,42.90
2022-11-30T19:16:22.230Z,48.70
2022-11-30T19:18:49.640Z,36.05
2022-11-30T19:21:18.265Z,42.72
2022-11-30T19:23:46.420Z,47.80
2022-11-30T19:26:14.351Z,62.55
2022-11-30T19:28:42.626Z,77.38
2022-11-30T19:31:14.457Z,139.85
2022-11-30T19:33:42.805Z,80.53
2022-11-30T19:36:13.136Z,63.50
2022-11-30T19:38:41.011Z,55.58
2022-11-30T19:41:11.759Z,52.20
2022-11-30T19:43:39.749Z,41.95
2022-11-30T19:46:08.092Z,51.72
2022-11-30T19:48:35.836Z,42.17
2022-11-30T19:51:13.250Z,35.58
2022-11-30T19:53:42.918Z,38.65
2022-11-30T19:56:31.312Z,38.33
2022-11-30T19:59:04.543Z,58.85
2022-11-30T20:01:33.345Z,146.43
2022-11-30T20:04:01.262Z,149.30
2022-11-30T20:06:29.921Z,122.03
2022-11-30T20:08:57.483Z,195.18
2022-11-30T20:11:25.256Z,212.43
2022-11-30T20:13:52.725Z,217.38
2022-11-30T20:16:21.186Z,268.83
2022-11-30T20:18:55.595Z,208.02
2022-11-30T20:21:25.347Z,55.10
2022-11-30T20:23:53.588Z,37.08
2022-11-30T20:26:20.890Z,37.83
2022-11-30T20:28:50.872Z,31.50
2022-11-30T20:31:19.080Z,29.67
2022-11-30T20:33:46.757Z,27.40
2022-11-30T20:36:15.611Z,26.67
2022-11-30T20:38:42.881Z,28.00
2022-11-30T20:41:11.985Z,24.80
2022-11-30T20:43:39.631Z,21.63
2022-11-30T20:46:13.859Z,24.27
2022-11-30T20:48:41.585Z,23.85
2022-11-30T20:54:00.795Z,22.73
2022-11-30T20:56:28.096Z,23.35
2022-11-30T20:58:55.535Z,26.35
2022-11-30T21:01:23.307Z,24.45
2022-11-30T21:03:51.448Z,24.80
2022-11-30T21:06:19.070Z,23.38
2022-11-30T21:08:46.630Z,22.27
2022-11-30T21:11:15.214Z,23.02
2022-11-30T21:13:44.054Z,25.60
2022-11-30T21:16:12.796Z,25.90
2022-11-30T21:18:40.840Z,28.08
2022-11-30T21:21:10.464Z,26.45
2022-11-30T21:23:37.935Z,24.33
2022-11-30T21:26:06.470Z,25.00
2022-11-30T21:28:38.087Z,26.45
2022-11-30T21:31:06.428Z,23.98
2022-11-30T21:33:34.951Z,27.55
2022-11-30T21:36:05.652Z,27.67
2022-11-30T21:38:33.369Z,25.90
2022-11-30T21:41:01.035Z,25.92
2022-11-30T21:43:29.219Z,23.58
2022-11-30T21:45:57.947Z,24.48
2022-11-30T21:48:25.356Z,26.50
2022-11-30T21:51:02.112Z,25.95
2022-11-30T21:53:30.103Z,25.42
2022-11-30T21:56:02.856Z,26.50
2022-11-30T21:58:31.721Z,26.75
2022-11-30T22:00:59.884Z,25.85
2022-11-30T22:03:27.653Z,23.63
2022-11-30T22:06:24.561Z,24.67
2022-11-30T22:08:51.914Z,26.40
2022-11-30T22:11:20.834Z,26.20
2022-11-30T22:13:52.397Z,24.88
2022-11-30T22:16:20.247Z,26.55
2022-11-30T22:18:47.948Z,24.70
2022-11-30T22:21:16.738Z,26.00
2022-11-30T22:23:45.178Z,27.70
2022-11-30T22:26:12.539Z,26.42
2022-11-30T22:28:40.343Z,27.15
2022-11-30T22:31:08.834Z,23.95
2022-11-30T22:33:37.415Z,25.58
2022-11-30T22:36:05.534Z,28.08
2022-11-30T22:38:33.092Z,25.48
2022-11-30T22:41:07.799Z,26.27
2022-11-30T22:43:35.450Z,24.67
2022-11-30T22:46:03.624Z,26.80
2022-11-30T22:48:31.913Z,26.58
2022-11-30T22:51:03.045Z,25.25
2022-11-30T22:53:30.477Z,27.55
2022-11-30T22:56:01.908Z,24.00
2022-11-30T22:58:29.581Z,24.45
2022-11-30T23:00:56.867Z,29.40
2022-11-30T23:03:25.714Z,25.90
2022-11-30T23:05:53.434Z,28.50
2022-11-30T23:08:20.952Z,27.92
2022-11-30T23:10:48.490Z,26.08
2022-11-30T23:13:15.843Z,26.55
2022-11-30T23:15:43.263Z,25.75
2022-11-30T23:18:10.862Z,27.08
2022-11-30T23:20:38.115Z,27.27
2022-11-30T23:23:05.468Z,27.35
2022-11-30T23:25:32.937Z,25.35
2022-11-30T23:28:00.318Z,25.75
2022-11-30T23:30:27.626Z,24.15
2022-11-30T23:32:57.926Z,26.48
2022-11-30T23:35:25.594Z,29.60
2022-11-30T23:37:52.938Z,25.52
2022-11-30T23:40:20.807Z,25.85
2022-11-30T23:42:48.127Z,27.10
2022-11-30T23:45:15.516Z,25.60
2022-11-30T23:47:43.090Z,25.17
2022-11-30T23:50:10.739Z,27.35
2022-11-30T23:52:38.065Z,26.58
2022-11-30T23:55:05.750Z,29.95
2022-11-30T23:57:33.016Z,26.42
